createdAt,value
2023-09-02T00:00:10.394Z,2.2
2023-09-02T00:01:18.588Z,2.3
2023-09-02T00:02:26.914Z,2.3
2023-09-02T00:03:35.225Z,2.3
2023-09-02T00:04:43.744Z,2.4
2023-09-02T00:05:52.070Z,2.4
2023-09-02T00:07:00.386Z,2.4
2023-09-02T00:08:08.912Z,3
2023-09-02T00:09:17.237Z,3
2023-09-02T00:10:25.566Z,3
2023-09-02T00:11:34.079Z,2.5
2023-09-02T00:12:42.398Z,2.5
2023-09-02T00:13:50.739Z,2.5
2023-09-02T00:14:59.262Z,2.5
2023-09-02T00:16:07.611Z,2.5
2023-09-02T00:17:15.908Z,2.5
2023-09-02T00:18:24.427Z,2.3
2023-09-02T00:19:32.745Z,2.3
2023-09-02T00:20:41.063Z,2.3
2023-09-02T00:21:49.587Z,2.6
2023-09-02T00:22:57.910Z,2.6
2023-09-02T00:24:06.241Z,2.6
2023-09-02T00:25:14.751Z,2.9
2023-09-02T00:26:23.076Z,2.9
2023-09-02T00:27:31.413Z,2.9
2023-09-02T00:28:39.929Z,3.2
2023-09-02T00:29:48.247Z,3.2
2023-09-02T00:30:56.562Z,3.2
2023-09-02T00:32:05.156Z,3.2
2023-09-02T00:33:13.450Z,3.2
2023-09-02T00:34:21.771Z,3.2
2023-09-02T00:35:30.303Z,2.3
2023-09-02T00:36:38.624Z,2.3
2023-09-02T00:37:46.933Z,2.3
2023-09-02T00:38:55.458Z,3.6
2023-09-02T00:40:03.783Z,3.6
2023-09-02T00:41:12.109Z,3.6
2023-09-02T00:42:20.636Z,3.3
2023-09-02T00:43:28.982Z,3.3
2023-09-02T00:44:37.293Z,3.3
2023-09-02T00:45:45.861Z,3.7
2023-09-02T00:46:54.136Z,3.7
2023-09-02T00:48:02.515Z,3.7
2023-09-02T00:49:10.987Z,2.7
2023-09-02T00:50:19.320Z,2.7
2023-09-02T00:51:27.647Z,2.7
2023-09-02T00:52:36.169Z,2
2023-09-02T00:53:44.486Z,2
2023-09-02T00:54:52.809Z,2
2023-09-02T00:56:01.338Z,2.1
2023-09-02T00:57:09.664Z,2.1
2023-09-02T00:58:17.981Z,2.1
2023-09-02T00:59:26.508Z,3.2
2023-09-02T01:00:34.835Z,3.2
2023-09-02T01:01:43.148Z,3.2
2023-09-02T01:02:51.728Z,2.3
2023-09-02T01:04:00.012Z,2.3
2023-09-02T01:05:08.307Z,2.3
2023-09-02T01:06:16.834Z,2.9
2023-09-02T01:07:25.137Z,2.9
2023-09-02T01:08:33.467Z,2.9
2023-09-02T01:09:41.996Z,2.2
2023-09-02T01:10:50.305Z,2.2
2023-09-02T01:11:58.616Z,2.2
2023-09-02T01:13:07.138Z,3.1
2023-09-02T01:14:15.468Z,3.1
2023-09-02T01:15:23.778Z,3.1
2023-09-02T01:16:32.344Z,2.5
2023-09-02T01:17:40.662Z,2.5
2023-09-02T01:18:48.965Z,2.5
2023-09-02T01:19:57.522Z,2.4
2023-09-02T01:21:05.803Z,2.4
2023-09-02T01:22:14.132Z,2.4
2023-09-02T01:23:22.676Z,2.1
2023-09-02T01:24:30.983Z,2.1
2023-09-02T01:25:39.309Z,2.1
2023-09-02T01:26:47.838Z,2.9
2023-09-02T01:27:56.172Z,2.9
2023-09-02T01:29:04.480Z,2.9
2023-09-02T01:30:13.003Z,2.9
2023-09-02T01:31:21.355Z,2.9
2023-09-02T01:32:29.700Z,2.9
2023-09-02T01:33:38.186Z,3.3
2023-09-02T01:34:46.496Z,3.3
2023-09-02T01:35:54.829Z,3.3
2023-09-02T01:37:03.354Z,2
2023-09-02T01:38:11.669Z,2
2023-09-02T01:39:19.994Z,2
2023-09-02T01:40:28.535Z,2.9
2023-09-02T01:41:36.854Z,2.9
2023-09-02T01:42:45.182Z,2.9
2023-09-02T01:43:53.735Z,3.3
2023-09-02T01:45:01.997Z,3.3
2023-09-02T01:46:10.325Z,3.3
2023-09-02T01:47:18.833Z,4.1
2023-09-02T01:48:27.141Z,4.1
2023-09-02T01:49:35.461Z,4.1
2023-09-02T01:50:43.996Z,4.5
2023-09-02T01:51:52.333Z,4.5
2023-09-02T01:53:00.631Z,4.5
2023-09-02T01:54:09.145Z,2.2
2023-09-02T01:55:17.472Z,2.2
2023-09-02T01:56:25.786Z,2.2
2023-09-02T01:57:34.313Z,2.1
2023-09-02T01:58:42.626Z,2.1
2023-09-02T01:59:50.966Z,2.1
2023-09-02T02:00:59.523Z,2.5
2023-09-02T02:02:07.797Z,2.5
2023-09-02T02:03:16.350Z,2.5
2023-09-02T02:04:24.638Z,2.9
2023-09-02T02:05:32.946Z,2.9
2023-09-02T02:06:41.265Z,2.9
2023-09-02T02:07:49.837Z,2.6
2023-09-02T02:08:58.124Z,2.6
2023-09-02T02:10:06.438Z,2.6
2023-09-02T02:11:14.966Z,3.3
2023-09-02T02:12:23.287Z,3.3
2023-09-02T02:13:31.624Z,3.3
2023-09-02T02:14:40.144Z,2.8
2023-09-02T02:15:48.489Z,2.8
2023-09-02T02:16:56.772Z,2.8
2023-09-02T02:18:05.323Z,4
2023-09-02T02:19:13.665Z,4
2023-09-02T02:20:21.961Z,4
2023-09-02T02:21:30.476Z,2.6
2023-09-02T02:22:38.798Z,2.6
2023-09-02T02:23:47.164Z,2.6
2023-09-02T02:24:55.649Z,3.1
2023-09-02T02:26:03.979Z,3.1
2023-09-02T02:27:12.295Z,3.1
2023-09-02T02:28:20.828Z,2
2023-09-02T02:29:29.153Z,2
2023-09-02T02:30:37.457Z,2
2023-09-02T02:31:46.008Z,2.2
2023-09-02T02:32:54.363Z,2.2
2023-09-02T02:34:02.637Z,2.2
2023-09-02T02:35:11.159Z,1.5
2023-09-02T02:36:19.491Z,1.5
2023-09-02T02:37:27.809Z,1.5
2023-09-02T02:38:36.337Z,1.4
2023-09-02T02:39:44.681Z,1.4
2023-09-02T02:40:52.964Z,1.4
2023-09-02T02:42:01.527Z,3.3
2023-09-02T02:43:09.843Z,3.3
2023-09-02T02:44:18.158Z,3.3
2023-09-02T02:45:26.688Z,1.8
2023-09-02T02:46:35.013Z,1.8
2023-09-02T02:47:43.392Z,1.8
2023-09-02T02:48:51.872Z,2.5
2023-09-02T02:50:00.208Z,2.5
2023-09-02T02:51:08.532Z,2.5
2023-09-02T02:52:17.052Z,1.7
2023-09-02T02:53:25.376Z,1.7
2023-09-02T02:54:33.685Z,1.7
2023-09-02T02:55:42.247Z,1.7
2023-09-02T02:56:50.532Z,1.7
2023-09-02T02:57:58.847Z,1.7
2023-09-02T02:59:07.378Z,2.7
2023-09-02T03:00:15.708Z,2.7
2023-09-02T03:01:24.041Z,2.7
2023-09-02T03:02:32.558Z,1.8
2023-09-02T03:03:40.928Z,1.8
2023-09-02T03:04:49.187Z,1.8
2023-09-02T03:05:57.716Z,1.7
2023-09-02T03:07:06.042Z,1.7
2023-09-02T03:08:14.356Z,1.7
2023-09-02T03:09:22.889Z,2.4
2023-09-02T03:10:31.202Z,2.4
2023-09-02T03:11:39.538Z,2.4
2023-09-02T03:12:48.041Z,2.2
2023-09-02T03:13:56.370Z,2.2
2023-09-02T03:15:04.694Z,2.2
2023-09-02T03:16:13.242Z,1.7
2023-09-02T03:17:21.545Z,1.7
2023-09-02T03:18:29.860Z,1.7
2023-09-02T03:19:38.375Z,2.1
2023-09-02T03:20:46.684Z,2.1
2023-09-02T03:21:55.000Z,2.1
2023-09-02T03:23:03.545Z,2.4
2023-09-02T03:24:11.867Z,2.4
2023-09-02T03:25:20.192Z,2.4
2023-09-02T03:26:28.720Z,3
2023-09-02T03:27:37.068Z,3
2023-09-02T03:28:45.378Z,3
2023-09-02T03:29:53.887Z,3.7
2023-09-02T03:31:02.210Z,3.7
2023-09-02T03:32:10.540Z,3.7
2023-09-02T03:33:19.222Z,3.9
2023-09-02T03:34:27.397Z,3.9
2023-09-02T03:35:35.729Z,3.9
2023-09-02T03:36:44.242Z,3
2023-09-02T03:37:52.551Z,3
2023-09-02T03:39:00.872Z,3
2023-09-02T03:40:09.399Z,2.9
2023-09-02T03:41:17.710Z,2.9
2023-09-02T03:42:26.033Z,2.9
2023-09-02T03:43:34.587Z,2.9
2023-09-02T03:44:42.881Z,2.9
2023-09-02T03:45:51.201Z,2.9
2023-09-02T03:46:59.804Z,3.6
2023-09-02T03:48:08.114Z,3.6
2023-09-02T03:49:16.354Z,3.6
2023-09-02T03:50:24.881Z,3.9
2023-09-02T03:51:33.210Z,3.9
2023-09-02T03:52:41.519Z,3.9
2023-09-02T03:53:50.048Z,4.7
2023-09-02T03:54:58.362Z,4.7
2023-09-02T03:56:06.709Z,4.7
2023-09-02T03:57:15.202Z,4
2023-09-02T03:58:23.519Z,4
2023-09-02T03:59:31.865Z,4
2023-09-02T04:00:40.369Z,5.7
2023-09-02T04:01:48.688Z,5.7
2023-09-02T04:02:57.076Z,5.7
2023-09-02T04:04:05.571Z,5
2023-09-02T04:05:13.875Z,5
2023-09-02T04:06:22.189Z,5
2023-09-02T04:07:30.713Z,5.5
2023-09-02T04:08:39.020Z,5.5
2023-09-02T04:09:47.354Z,5.5
2023-09-02T04:10:55.870Z,5.1
2023-09-02T04:12:04.223Z,5.1
2023-09-02T04:13:12.542Z,5.1
2023-09-02T04:14:21.067Z,4.7
2023-09-02T04:15:29.412Z,4.7
2023-09-02T04:16:37.785Z,4.7
2023-09-02T04:17:46.251Z,4.3
2023-09-02T04:18:54.583Z,4.3
2023-09-02T04:20:02.879Z,4.3
2023-09-02T04:21:11.433Z,4.5
2023-09-02T04:22:19.724Z,4.5
2023-09-02T04:23:28.060Z,4.5
2023-09-02T04:24:36.594Z,4.1
2023-09-02T04:25:44.898Z,4.1
2023-09-02T04:26:53.218Z,4.1
2023-09-02T04:28:01.758Z,4.4
2023-09-02T04:29:10.088Z,4.4
2023-09-02T04:30:18.389Z,4.4
2023-09-02T04:31:26.945Z,4
2023-09-02T04:32:35.314Z,4
2023-09-02T04:33:43.565Z,4
2023-09-02T04:34:52.078Z,5.6
2023-09-02T04:36:00.409Z,5.6
2023-09-02T04:37:08.759Z,5.6
2023-09-02T04:38:17.296Z,5.7
2023-09-02T04:39:25.624Z,5.7
2023-09-02T04:40:33.930Z,5.7
2023-09-02T04:41:42.452Z,4.8
2023-09-02T04:42:50.789Z,4.8
2023-09-02T04:43:59.125Z,4.8
2023-09-02T04:45:07.642Z,4.9
2023-09-02T04:46:15.976Z,4.9
2023-09-02T04:47:24.342Z,4.9
2023-09-02T04:48:32.832Z,5.5
2023-09-02T04:49:41.153Z,5.5
2023-09-02T04:50:49.455Z,5.5
2023-09-02T04:51:57.997Z,4.1
2023-09-02T04:53:06.320Z,4.1
2023-09-02T04:54:14.627Z,4.1
2023-09-02T04:55:23.171Z,4.7
2023-09-02T04:56:31.494Z,4.7
2023-09-02T04:57:39.811Z,4.7
2023-09-02T04:58:48.336Z,4.5
2023-09-02T04:59:56.648Z,4.5
2023-09-02T05:01:04.964Z,4.5
2023-09-02T05:02:13.487Z,4.5
2023-09-02T05:03:21.827Z,4.5
2023-09-02T05:04:30.117Z,4.5
2023-09-02T05:05:38.674Z,6
2023-09-02T05:06:46.959Z,6
2023-09-02T05:07:55.274Z,6
2023-09-02T05:09:03.799Z,4.9
2023-09-02T05:10:12.111Z,4.9
2023-09-02T05:11:20.425Z,4.9
2023-09-02T05:12:28.946Z,5.4
2023-09-02T05:13:37.297Z,5.4
2023-09-02T05:14:45.598Z,5.4
2023-09-02T05:15:54.175Z,6
2023-09-02T05:17:02.443Z,6
2023-09-02T05:18:10.757Z,6
2023-09-02T05:19:19.310Z,5.6
2023-09-02T05:20:27.617Z,5.6
2023-09-02T05:21:35.936Z,5.6
2023-09-02T05:22:44.460Z,6.2
2023-09-02T05:23:52.786Z,6.2
2023-09-02T05:25:01.110Z,6.2
2023-09-02T05:26:09.631Z,5.5
2023-09-02T05:27:17.937Z,5.5
2023-09-02T05:28:26.331Z,5.5
2023-09-02T05:29:34.777Z,5.4
2023-09-02T05:30:43.105Z,5.4
2023-09-02T05:31:51.474Z,5.4
2023-09-02T05:33:00.029Z,5
2023-09-02T05:34:08.291Z,5
2023-09-02T05:35:16.615Z,5
2023-09-02T05:36:25.108Z,5.3
2023-09-02T05:37:33.423Z,5.3
2023-09-02T05:38:41.748Z,5.3
2023-09-02T05:39:50.277Z,5.1
2023-09-02T05:40:58.592Z,5.1
2023-09-02T05:42:06.934Z,5.1
2023-09-02T05:43:16.525Z,5.4
2023-09-02T05:44:24.634Z,5.4
2023-09-02T05:45:32.992Z,5.4
2023-09-02T05:46:41.500Z,4.6
2023-09-02T05:47:49.841Z,4.6
2023-09-02T05:48:58.136Z,4.6
2023-09-02T05:50:06.667Z,3.2
2023-09-02T05:51:14.999Z,3.2
2023-09-02T05:52:23.318Z,3.2
2023-09-02T05:53:31.860Z,2.9
2023-09-02T05:54:40.149Z,2.9
2023-09-02T05:55:48.456Z,2.9
2023-09-02T05:56:56.998Z,1.4
2023-09-02T05:58:05.310Z,1.4
2023-09-02T05:59:13.628Z,1.4
2023-09-02T06:00:22.174Z,1.2
2023-09-02T06:01:30.556Z,1.2
2023-09-02T06:02:38.860Z,1.2
2023-09-02T06:03:47.386Z,1.5
2023-09-02T06:04:55.722Z,1.5
2023-09-02T06:06:04.036Z,1.5
2023-09-02T06:07:12.678Z,2
2023-09-02T06:08:20.983Z,2
2023-09-02T06:09:29.322Z,2
2023-09-02T06:10:37.865Z,1.6
2023-09-02T06:11:46.200Z,1.6
2023-09-02T06:12:54.508Z,1.6
2023-09-02T06:14:03.051Z,1.8
2023-09-02T06:15:11.358Z,1.8
2023-09-02T06:16:19.694Z,1.8
2023-09-02T06:17:28.230Z,1.9
2023-09-02T06:18:36.517Z,1.9
2023-09-02T06:19:44.850Z,1.9
2023-09-02T06:20:53.353Z,3
2023-09-02T06:22:01.684Z,3
2023-09-02T06:23:10.018Z,3
2023-09-02T06:24:18.532Z,2
2023-09-02T06:25:26.847Z,2
2023-09-02T06:26:35.179Z,2
2023-09-02T06:27:43.701Z,1.9
2023-09-02T06:28:52.031Z,1.9
2023-09-02T06:30:00.362Z,1.9
2023-09-02T06:31:08.913Z,2.5
2023-09-02T06:32:17.176Z,2.5
2023-09-02T06:33:25.511Z,2.5
2023-09-02T06:34:34.034Z,2.7
2023-09-02T06:35:42.369Z,2.7
2023-09-02T06:36:50.694Z,2.7
2023-09-02T06:37:59.269Z,2.3
2023-09-02T06:39:07.573Z,2.3
2023-09-02T06:40:15.872Z,2.3
2023-09-02T06:41:24.393Z,2.3
2023-09-02T06:42:32.725Z,2.3
2023-09-02T06:43:58.680Z,2.3
2023-09-02T06:45:11.161Z,1.5
2023-09-02T06:46:19.493Z,1.5
2023-09-02T06:47:27.825Z,1.5
2023-09-02T06:48:36.549Z,2.4
2023-09-02T06:49:44.879Z,2.4
2023-09-02T06:50:53.185Z,2.4
2023-09-02T06:52:01.717Z,2.3
2023-09-02T06:53:10.046Z,2.3
2023-09-02T06:54:20.020Z,2.3
2023-09-02T06:55:26.888Z,2.9
2023-09-02T06:56:35.218Z,2.9
2023-09-02T06:57:43.535Z,2.9
2023-09-02T06:58:52.066Z,3.9
2023-09-02T07:00:00.434Z,3.9
2023-09-02T07:01:08.768Z,3.9
2023-09-02T07:02:17.277Z,2.5
2023-09-02T07:03:25.724Z,2.5
2023-09-02T07:04:33.900Z,2.5
2023-09-02T07:05:42.440Z,3.1
2023-09-02T07:06:50.782Z,3.1
2023-09-02T07:07:59.095Z,3.1
2023-09-02T07:09:07.616Z,3.3
2023-09-02T07:10:15.966Z,3.3
2023-09-02T07:11:24.270Z,3.3
2023-09-02T07:12:32.801Z,3.4
2023-09-02T07:13:41.125Z,3.4
2023-09-02T07:14:49.452Z,3.4
2023-09-02T07:15:57.985Z,2.7
2023-09-02T07:17:06.294Z,2.7
2023-09-02T07:18:14.621Z,2.7
2023-09-02T07:19:23.259Z,2.3
2023-09-02T07:20:31.524Z,2.3
2023-09-02T07:21:39.840Z,2.3
2023-09-02T07:22:48.371Z,2.6
2023-09-02T07:23:58.465Z,2.6
2023-09-02T07:25:05.070Z,2.6
2023-09-02T07:26:13.626Z,2.5
2023-09-02T07:27:21.915Z,2.5
2023-09-02T07:28:30.229Z,2.5
2023-09-02T07:29:38.766Z,2
2023-09-02T07:30:47.077Z,2
2023-09-02T07:31:55.395Z,2
2023-09-02T07:33:03.971Z,2.8
2023-09-02T07:34:12.240Z,2.8
2023-09-02T07:35:20.548Z,2.8
2023-09-02T07:36:29.078Z,2.3
2023-09-02T07:37:37.413Z,2.3
2023-09-02T07:38:45.751Z,2.3
2023-09-02T07:39:54.268Z,1.7
2023-09-02T07:41:02.590Z,1.7
2023-09-02T07:42:10.971Z,1.7
2023-09-02T07:43:19.730Z,1.6
2023-09-02T07:44:27.912Z,1.6
2023-09-02T07:45:36.283Z,1.6
2023-09-02T07:46:44.772Z,6.8
2023-09-02T07:47:53.121Z,6.8
2023-09-02T07:49:01.424Z,6.8
2023-09-02T07:50:09.950Z,3
2023-09-02T07:51:18.273Z,3
2023-09-02T07:52:26.595Z,3
2023-09-02T07:53:35.127Z,2.8
2023-09-02T07:54:43.443Z,2.8
2023-09-02T07:55:51.757Z,2.8
2023-09-02T07:57:00.304Z,2.7
2023-09-02T07:58:08.666Z,2.7
2023-09-02T07:59:16.976Z,2.7
2023-09-02T08:00:25.480Z,2.8
2023-09-02T08:01:33.876Z,2.8
2023-09-02T08:02:42.197Z,2.8
2023-09-02T08:03:50.685Z,2.5
2023-09-02T08:04:58.979Z,2.5
2023-09-02T08:06:07.304Z,2.5
2023-09-02T08:07:15.834Z,2.3
2023-09-02T08:08:24.151Z,2.3
2023-09-02T08:09:32.481Z,2.3
2023-09-02T08:10:41.015Z,2.6
2023-09-02T08:11:49.354Z,2.6
2023-09-02T08:12:57.701Z,2.6
2023-09-02T08:14:06.303Z,4.3
2023-09-02T08:15:14.540Z,4.3
2023-09-02T08:16:22.890Z,4.3
2023-09-02T08:17:31.434Z,4.5
2023-09-02T08:18:39.706Z,4.5
2023-09-02T08:19:48.042Z,4.5
2023-09-02T08:20:56.556Z,4.2
2023-09-02T08:22:04.873Z,4.2
2023-09-02T08:23:13.189Z,4.2
2023-09-02T08:24:21.715Z,4.1
2023-09-02T08:25:30.025Z,4.1
2023-09-02T08:26:38.333Z,4.1
2023-09-02T08:27:46.859Z,6.9
2023-09-02T08:28:55.176Z,6.9
2023-09-02T08:30:03.530Z,6.9
2023-09-02T08:31:12.037Z,4.4
2023-09-02T08:32:20.330Z,4.4
2023-09-02T08:33:28.657Z,4.4
2023-09-02T08:34:37.186Z,4.8
2023-09-02T08:35:45.514Z,4.8
2023-09-02T08:36:53.837Z,4.8
2023-09-02T08:38:02.364Z,4
2023-09-02T08:39:10.754Z,4
2023-09-02T08:40:19.066Z,4
2023-09-02T08:41:27.653Z,4.1
2023-09-02T08:42:35.924Z,4.1
2023-09-02T08:43:44.228Z,4.1
2023-09-02T08:44:52.780Z,3.1
2023-09-02T08:46:01.129Z,3.1
2023-09-02T08:47:09.405Z,3.1
2023-09-02T08:48:17.933Z,2.4
2023-09-02T08:49:26.256Z,2.4
2023-09-02T08:50:34.568Z,2.4
2023-09-02T08:51:43.094Z,4.2
2023-09-02T08:52:51.412Z,4.2
2023-09-02T08:53:59.765Z,4.2
2023-09-02T08:55:09.993Z,2.2
2023-09-02T08:56:16.631Z,2.2
2023-09-02T08:57:24.987Z,2.2
2023-09-02T08:58:33.479Z,2.1
2023-09-02T08:59:41.793Z,2.1
2023-09-02T09:00:50.178Z,2.1
2023-09-02T09:01:58.661Z,2
2023-09-02T09:03:07.063Z,2
2023-09-02T09:04:15.275Z,2
2023-09-02T09:05:23.796Z,3.1
2023-09-02T09:06:32.686Z,3.1
2023-09-02T09:07:40.444Z,3.1
2023-09-02T09:08:48.976Z,2.1
2023-09-02T09:09:57.297Z,2.1
2023-09-02T09:11:05.621Z,2.1
2023-09-02T09:12:14.149Z,2.3
2023-09-02T09:13:22.464Z,2.3
2023-09-02T09:14:30.785Z,2.3
2023-09-02T09:15:39.321Z,2.1
2023-09-02T09:16:47.676Z,2.1
2023-09-02T09:17:55.991Z,2.1
2023-09-02T09:19:04.505Z,2.1
2023-09-02T09:20:12.806Z,2.1
2023-09-02T09:21:21.139Z,2.1
2023-09-02T09:22:29.672Z,2.5
2023-09-02T09:23:37.988Z,2.5
2023-09-02T09:24:46.293Z,2.5
2023-09-02T09:25:54.832Z,2
2023-09-02T09:27:03.139Z,2
2023-09-02T09:28:11.464Z,2
2023-09-02T09:29:19.997Z,2.1
2023-09-02T09:30:28.350Z,2.1
2023-09-02T09:31:36.669Z,2.1
2023-09-02T09:32:45.250Z,4.7
2023-09-02T09:33:53.576Z,4.7
2023-09-02T09:35:01.910Z,4.7
2023-09-02T09:36:10.521Z,4.3
2023-09-02T09:37:18.793Z,4.3
2023-09-02T09:38:27.089Z,4.3
2023-09-02T09:39:35.625Z,3.4
2023-09-02T09:40:43.927Z,3.4
2023-09-02T09:41:52.235Z,3.4
2023-09-02T09:43:00.768Z,2.4
2023-09-02T09:44:09.085Z,2.4
2023-09-02T09:45:17.430Z,2.4
2023-09-02T09:46:26.001Z,2.5
2023-09-02T09:47:34.371Z,2.5
2023-09-02T09:48:42.673Z,2.5
2023-09-02T09:49:51.247Z,3.4
2023-09-02T09:50:59.566Z,3.4
2023-09-02T09:52:07.899Z,3.4
2023-09-02T09:53:16.936Z,3.1
2023-09-02T09:54:24.797Z,3.1
2023-09-02T09:55:33.138Z,3.1
2023-09-02T09:56:41.684Z,2.1
2023-09-02T09:57:50.068Z,2.1
2023-09-02T09:58:58.366Z,2.1
2023-09-02T10:00:06.906Z,2.5
2023-09-02T10:01:15.246Z,2.5
2023-09-02T10:02:23.578Z,2.5
2023-09-02T10:03:32.160Z,2.4
2023-09-02T10:04:40.429Z,2.4
2023-09-02T10:05:48.801Z,2.4
2023-09-02T10:06:57.332Z,2.7
2023-09-02T10:08:05.699Z,2.7
2023-09-02T10:09:14.012Z,2.7
2023-09-02T10:10:22.556Z,2.1
2023-09-02T10:11:30.898Z,2.1
2023-09-02T10:12:39.878Z,2.1
2023-09-02T10:13:47.791Z,5.6
2023-09-02T10:14:56.104Z,5.6
2023-09-02T10:16:04.428Z,5.6
2023-09-02T10:17:12.984Z,3
2023-09-02T10:18:21.359Z,3
2023-09-02T10:19:29.616Z,3
2023-09-02T10:20:38.133Z,1.9
2023-09-02T10:21:46.496Z,1.9
2023-09-02T10:22:54.798Z,1.9
2023-09-02T10:24:03.329Z,2.3
2023-09-02T10:25:11.661Z,2.3
2023-09-02T10:26:19.993Z,2.3
2023-09-02T10:27:28.524Z,1.7
2023-09-02T10:28:36.850Z,1.7
2023-09-02T10:29:45.175Z,1.7
2023-09-02T10:30:53.703Z,2.2
2023-09-02T10:32:02.012Z,2.2
2023-09-02T10:33:10.368Z,2.2
2023-09-02T10:34:18.867Z,1.9
2023-09-02T10:35:27.197Z,1.9
2023-09-02T10:36:35.523Z,1.9
2023-09-02T10:37:44.076Z,1.9
2023-09-02T10:38:52.370Z,1.9
2023-09-02T10:40:00.721Z,1.9
2023-09-02T10:41:09.261Z,2
2023-09-02T10:42:17.573Z,2
2023-09-02T10:43:25.903Z,2
2023-09-02T10:44:34.426Z,2.1
2023-09-02T10:45:42.789Z,2.1
2023-09-02T10:46:52.183Z,2.1
2023-09-02T10:47:59.607Z,1.7
2023-09-02T10:49:07.904Z,1.7
2023-09-02T10:50:16.238Z,1.7
2023-09-02T10:51:24.775Z,2
2023-09-02T10:52:33.100Z,2
2023-09-02T10:53:41.446Z,2
2023-09-02T10:54:49.960Z,1.8
2023-09-02T10:55:58.283Z,1.8
2023-09-02T10:57:06.611Z,1.8
2023-09-02T10:58:15.130Z,1.7
2023-09-02T10:59:23.471Z,1.7
2023-09-02T11:00:31.793Z,1.7
2023-09-02T11:01:40.319Z,1.7
2023-09-02T11:02:48.643Z,1.7
2023-09-02T11:03:56.961Z,1.7
2023-09-02T11:05:05.490Z,1.7
2023-09-02T11:06:13.846Z,1.7
2023-09-02T11:07:22.176Z,1.7
2023-09-02T11:08:30.704Z,1.7
2023-09-02T11:09:39.136Z,1.7
2023-09-02T11:10:47.426Z,1.7
2023-09-02T11:11:55.962Z,1.4
2023-09-02T11:13:04.290Z,1.4
2023-09-02T11:14:12.612Z,1.4
2023-09-02T11:15:21.143Z,1.4
2023-09-02T11:16:29.488Z,1.4
2023-09-02T11:17:38.003Z,1.4
2023-09-02T11:18:46.511Z,1.6
2023-09-02T11:19:54.665Z,1.6
2023-09-02T11:21:02.985Z,1.6
2023-09-02T11:22:11.555Z,1.6
2023-09-02T11:23:20.000Z,1.6
2023-09-02T11:24:28.201Z,1.6
2023-09-02T11:25:36.779Z,1.5
2023-09-02T11:26:45.104Z,1.5
2023-09-02T11:27:53.451Z,1.5
2023-09-02T11:29:01.968Z,1.4
2023-09-02T11:30:10.300Z,1.4
2023-09-02T11:31:18.701Z,1.4
2023-09-02T11:32:27.212Z,1.3
2023-09-02T11:33:35.552Z,1.3
2023-09-02T11:34:43.884Z,1.3
2023-09-02T11:35:52.447Z,1.1
2023-09-02T11:37:00.807Z,1.1
2023-09-02T11:38:09.128Z,1.1
2023-09-02T11:39:17.679Z,1.2
2023-09-02T11:40:26.009Z,1.2
2023-09-02T11:41:34.354Z,1.2
2023-09-02T11:42:42.861Z,1.1
2023-09-02T11:43:51.191Z,1.1
2023-09-02T11:44:59.500Z,1.1
2023-09-02T11:46:08.105Z,1.8
2023-09-02T11:47:16.406Z,1.8
2023-09-02T11:48:24.746Z,1.8
2023-09-02T11:49:33.288Z,1.9
2023-09-02T11:50:41.648Z,1.9
2023-09-02T11:51:49.969Z,1.9
2023-09-02T11:52:58.536Z,1.5
2023-09-02T11:54:06.844Z,1.5
2023-09-02T11:55:15.200Z,1.5
2023-09-02T11:56:23.761Z,1.2
2023-09-02T11:57:32.114Z,1.2
2023-09-02T11:58:40.428Z,1.2
2023-09-02T11:59:48.996Z,1.5
2023-09-02T12:00:57.323Z,1.5
2023-09-02T12:02:05.678Z,1.5
2023-09-02T12:03:14.308Z,1.4
2023-09-02T12:04:22.562Z,1.4
2023-09-02T12:05:30.891Z,1.4
2023-09-02T12:06:39.440Z,1.9
2023-09-02T12:07:47.782Z,1.9
2023-09-02T12:08:56.134Z,1.9
2023-09-02T12:10:04.671Z,1.6
2023-09-02T12:11:13.012Z,1.6
2023-09-02T12:12:21.345Z,1.6
2023-09-02T12:13:29.917Z,1
2023-09-02T12:14:38.346Z,1
2023-09-02T12:15:46.543Z,1
2023-09-02T12:16:55.113Z,1.2
2023-09-02T12:18:03.436Z,1.2
2023-09-02T12:19:11.723Z,1.2
2023-09-02T12:20:20.286Z,1.2
2023-09-02T12:21:28.670Z,1.2
2023-09-02T12:22:36.963Z,1.2
2023-09-02T12:23:45.523Z,1
2023-09-02T12:24:53.819Z,1
2023-09-02T12:26:02.142Z,1
2023-09-02T12:27:10.695Z,1.5
2023-09-02T12:28:19.045Z,1.5
2023-09-02T12:29:27.418Z,1.5
2023-09-02T12:30:35.929Z,1.4
2023-09-02T12:31:44.243Z,1.4
2023-09-02T12:32:52.574Z,1.4
2023-09-02T12:34:01.094Z,2.3
2023-09-02T12:35:09.466Z,2.3
2023-09-02T12:36:17.868Z,2.3
2023-09-02T12:37:26.429Z,1.2
2023-09-02T12:38:34.746Z,1.2
2023-09-02T12:39:43.061Z,1.2
2023-09-02T12:40:51.608Z,1.1
2023-09-02T12:41:59.945Z,1.1
2023-09-02T12:43:08.275Z,1.1
2023-09-02T12:44:16.809Z,1.6
2023-09-02T12:45:25.152Z,1.6
2023-09-02T12:46:33.461Z,1.6
2023-09-02T12:47:42.012Z,0.9
2023-09-02T12:48:50.309Z,0.9
2023-09-02T12:49:58.634Z,0.9
2023-09-02T12:51:07.171Z,1.5
2023-09-02T12:52:15.494Z,1.5
2023-09-02T12:53:23.821Z,1.5
2023-09-02T12:54:32.367Z,1
2023-09-02T12:55:40.731Z,1
2023-09-02T12:56:49.054Z,1
2023-09-02T12:57:57.628Z,1.6
2023-09-02T12:59:05.942Z,1.6
2023-09-02T13:00:14.264Z,1.6
2023-09-02T13:01:22.857Z,1.7
2023-09-02T13:02:31.279Z,1.7
2023-09-02T13:03:39.568Z,1.7
2023-09-02T13:04:48.021Z,1.4
2023-09-02T13:05:56.328Z,1.4
2023-09-02T13:07:04.676Z,1.4
2023-09-02T13:08:14.208Z,1.1
2023-09-02T13:09:21.562Z,1.1
2023-09-02T13:10:29.900Z,1.1
2023-09-02T13:11:38.425Z,1.3
2023-09-02T13:12:46.760Z,1.3
2023-09-02T13:13:55.078Z,1.3
2023-09-02T13:15:03.614Z,1
2023-09-02T13:16:11.950Z,1
2023-09-02T13:17:20.296Z,1
2023-09-02T13:18:28.840Z,2.3
2023-09-02T13:19:37.159Z,2.3
2023-09-02T13:20:45.498Z,2.3
2023-09-02T13:21:54.029Z,92.900002
2023-09-02T13:23:02.360Z,92.900002
2023-09-02T13:24:10.711Z,92.900002
2023-09-02T13:25:19.238Z,6.6
2023-09-02T13:26:27.552Z,6.6
2023-09-02T13:27:35.888Z,6.6
2023-09-02T13:28:44.428Z,3
2023-09-02T13:29:52.778Z,3
2023-09-02T13:31:01.136Z,3
2023-09-02T13:32:09.649Z,1.2
2023-09-02T13:33:18.237Z,1.2
2023-09-02T13:34:26.286Z,1.2
2023-09-02T13:35:34.838Z,3
2023-09-02T13:36:43.151Z,3
2023-09-02T13:37:51.477Z,3
2023-09-02T13:39:00.011Z,1.5
2023-09-02T13:40:08.347Z,1.5
2023-09-02T13:41:16.697Z,1.5
2023-09-02T13:42:25.199Z,1.7
2023-09-02T13:43:33.526Z,1.7
2023-09-02T13:44:41.839Z,1.7
2023-09-02T13:45:50.423Z,1.2
2023-09-02T13:46:58.720Z,1.2
2023-09-02T13:48:07.054Z,1.2
2023-09-02T13:49:15.610Z,4.6
2023-09-02T13:50:23.929Z,4.6
2023-09-02T13:51:32.244Z,4.6
2023-09-02T13:52:40.779Z,1.6
2023-09-02T13:53:49.079Z,1.6
2023-09-02T13:54:57.401Z,1.6
2023-09-02T13:56:05.957Z,1.6
2023-09-02T13:57:14.295Z,1.6
2023-09-02T13:58:22.641Z,1.6
2023-09-02T13:59:31.180Z,1.3
2023-09-02T14:00:39.604Z,1.3
2023-09-02T14:01:47.853Z,1.3
2023-09-02T14:02:56.443Z,0.8
2023-09-02T14:04:04.740Z,0.8
2023-09-02T14:05:13.133Z,0.8
2023-09-02T14:06:21.653Z,1.6
2023-09-02T14:07:29.944Z,1.6
2023-09-02T14:08:38.262Z,1.6
2023-09-02T14:09:46.810Z,1.5
2023-09-02T14:10:55.196Z,1.5
2023-09-02T14:12:03.526Z,1.5
2023-09-02T14:13:12.056Z,0.9
2023-09-02T14:14:20.380Z,0.9
2023-09-02T14:15:28.689Z,0.9
2023-09-02T14:16:37.257Z,1.3
2023-09-02T14:17:45.551Z,1.3
2023-09-02T14:18:53.874Z,1.3
2023-09-02T14:20:02.401Z,1.8
2023-09-02T14:21:10.751Z,1.8
2023-09-02T14:22:19.046Z,1.8
2023-09-02T14:23:27.591Z,1
2023-09-02T14:24:35.921Z,1
2023-09-02T14:25:44.250Z,1
2023-09-02T14:26:52.787Z,1.7
2023-09-02T14:28:01.146Z,1.7
2023-09-02T14:29:09.435Z,1.7
2023-09-02T14:30:17.976Z,0.9
2023-09-02T14:31:26.328Z,0.9
2023-09-02T14:32:34.625Z,0.9
2023-09-02T14:33:43.796Z,0.9
2023-09-02T14:34:52.146Z,0.9
2023-09-02T14:36:00.474Z,0.9
2023-09-02T14:37:09.016Z,1.1
2023-09-02T14:38:18.481Z,1.1
2023-09-02T14:39:25.652Z,1.1
2023-09-02T14:40:34.178Z,1.3
2023-09-02T14:41:42.492Z,1.3
2023-09-02T14:42:50.858Z,1.3
2023-09-02T14:43:59.375Z,1.3
2023-09-02T14:45:07.763Z,1.3
2023-09-02T14:46:16.020Z,1.3
2023-09-02T14:47:24.552Z,0.9
2023-09-02T14:48:32.853Z,0.9
2023-09-02T14:49:41.172Z,0.9
2023-09-02T14:50:49.692Z,1.8
2023-09-02T14:51:58.020Z,1.8
2023-09-02T14:53:06.358Z,1.8
2023-09-02T14:54:14.869Z,1.2
2023-09-02T14:55:23.195Z,1.2
2023-09-02T14:56:31.520Z,1.2
2023-09-02T14:57:40.061Z,1.2
2023-09-02T14:58:48.387Z,1.2
2023-09-02T14:59:56.704Z,1.2
2023-09-02T15:01:05.243Z,1.4
2023-09-02T15:02:13.565Z,1.4
2023-09-02T15:03:24.433Z,1.4
2023-09-02T15:04:30.423Z,1
2023-09-02T15:05:38.759Z,1
2023-09-02T15:06:47.105Z,1
2023-09-02T15:07:55.625Z,1.3
2023-09-02T15:09:03.969Z,1.3
2023-09-02T15:10:12.260Z,1.3
2023-09-02T15:11:20.809Z,1.1
2023-09-02T15:46:06.901Z,0
2023-09-02T15:47:15.176Z,0
2023-09-02T15:48:23.521Z,0
2023-09-02T15:49:32.064Z,1.8
2023-09-02T15:50:40.393Z,1.8
2023-09-02T15:51:48.727Z,1.8
2023-09-02T15:52:57.277Z,1.6
2023-09-02T15:54:05.617Z,1.6
2023-09-02T15:55:13.928Z,1.6
2023-09-02T15:56:22.489Z,2.8
2023-09-02T15:57:30.832Z,2.8
2023-09-02T15:58:39.153Z,2.8
2023-09-02T15:59:47.687Z,1.6
2023-09-02T16:00:55.998Z,1.6
2023-09-02T16:02:04.422Z,1.6
2023-09-02T16:03:12.998Z,1.3
2023-09-02T16:04:21.228Z,1.3
2023-09-02T16:05:29.578Z,1.3
2023-09-02T16:06:38.097Z,1.4
2023-09-02T16:07:46.420Z,1.4
2023-09-02T16:08:54.822Z,1.4
2023-09-02T16:10:03.282Z,1.2
2023-09-02T16:11:11.605Z,1.2
2023-09-02T16:12:19.928Z,1.2
2023-09-02T16:13:28.463Z,1.3
2023-09-02T16:14:36.801Z,1.3
2023-09-02T16:15:45.156Z,1.3
2023-09-02T16:16:53.688Z,1.9
2023-09-02T16:18:02.077Z,1.9
2023-09-02T16:19:10.369Z,1.9
2023-09-02T16:20:19.187Z,1.9
2023-09-02T16:21:27.531Z,1.9
2023-09-02T16:22:35.847Z,1.9